| time (UTC) | temp F | wind direction | speed MPH | gust MPH | rain 1hr in | rain 24hr in | rain mn in | humidity % | barometer mb |
| 20260504050423 | 69 | 250 | 0.0 | 5.0 | 0.00 | 0.01 | 0.01 | 60 | 1007.9 |
| 20260504045419 | 70 | 278 | 0.0 | 3.0 | 0.00 | 0.01 | 0.01 | 60 | 1007.7 |
| 20260504044420 | 71 | 257 | 1.0 | 4.0 | 0.00 | 0.01 | 0.01 | 59 | 1007.6 |
| 20260504043419 | 72 | 272 | 1.0 | 6.0 | 0.00 | 0.01 | 0.01 | 59 | 1007.4 |
| 20260504042419 | 73 | 294 | 0.0 | 7.0 | 0.00 | 0.01 | 0.01 | 59 | 1007.3 |
| 20260504042345 | 74 | 251 | 0.0 | 3.0 | 0.00 | 0.01 | 0.01 | 59 | 1006.9 |
| 20260504040416 | 74 | 9 | 1.0 | 3.0 | 0.00 | 0.01 | 0.01 | 60 | 1006.5 |
| 20260504035416 | 73 | 276 | 0.0 | 3.0 | 0.00 | 0.01 | 0.01 | 61 | 1006.3 |
| 20260504034855 | 74 | 292 | 0.0 | 0.0 | 0.00 | 0.01 | 0.01 | 57 | 1006.2 |
| 20260504033419 | 75 | 292 | 0.0 | 0.0 | 0.00 | 0.01 | 0.01 | 58 | 1006.0 |
| 20260504032416 | 75 | 292 | 0.0 | 0.0 | 0.00 | 0.01 | 0.01 | 61 | 1005.8 |
| 20260504031418 | 77 | 292 | 0.0 | 0.0 | 0.00 | 0.01 | 0.01 | 58 | 1005.6 |
| 20260504030416 | 78 | 292 | 0.0 | 0.0 | 0.00 | 0.01 | 0.01 | 56 | 1005.6 |
| 20260504025412 | 79 | 292 | 0.0 | 0.0 | 0.00 | 0.01 | 0.01 | 54 | 1005.6 |
| 20260504024857 | 80 | 292 | 0.0 | 0.0 | 0.00 | 0.01 | 0.01 | 52 | 1005.5 |
| 20260504023412 | 81 | 292 | 0.0 | 0.0 | 0.00 | 0.01 | 0.01 | 50 | 1005.5 |
| 20260504022412 | 81 | 292 | 0.0 | 0.0 | 0.00 | 0.01 | 0.01 | 49 | 1005.4 |
| 20260504021411 | 82 | 292 | 0.0 | 1.0 | 0.00 | 0.01 | 0.01 | 49 | 1005.6 |
| 20260504020411 | 83 | 292 | 0.0 | 1.0 | 0.00 | 0.01 | 0.01 | 45 | 1005.5 |
| 20260504015410 | 84 | 295 | 1.0 | 3.0 | 0.00 | 0.01 | 0.01 | 44 | 1005.6 |
| 20260504014412 | 84 | 9 | 2.0 | 4.0 | 0.00 | 0.01 | 0.01 | 43 | 1005.7 |
| 20260504013412 | 85 | 296 | 3.0 | 5.0 | 0.00 | 0.01 | 0.01 | 43 | 1005.6 |
| 20260504012409 | 85 | 299 | 3.0 | 6.0 | 0.00 | 0.01 | 0.01 | 41 | 1005.6 |
| 20260504011409 | 85 | 32 | 3.0 | 9.0 | 0.00 | 0.01 | 0.01 | 42 | 1005.7 |
| 20260504010409 | 85 | 301 | 4.0 | 9.0 | 0.00 | 0.01 | 0.01 | 40 | 1005.6 |
| 20260504005409 | 85 | 296 | 3.0 | 7.0 | 0.00 | 0.01 | 0.01 | 39 | 1005.6 |
| 20260504004852 | 85 | 294 | 4.0 | 9.0 | 0.00 | 0.01 | 0.01 | 37 | 1005.5 |
| 20260504003416 | 85 | 349 | 4.0 | 10.0 | 0.00 | 0.01 | 0.01 | 37 | 1005.6 |
| 20260504002410 | 85 | 20 | 5.0 | 10.0 | 0.00 | 0.01 | 0.01 | 34 | 1005.7 |
| 20260504001409 | 85 | 309 | 5.0 | 14.0 | 0.00 | 0.01 | 0.01 | 34 | 1005.6 |
| 20260504000409 | 85 | 290 | 5.0 | 11.0 | 0.00 | 0.01 | 0.01 | 33 | 1005.6 |
| 20260503235410 | 85 | 316 | 5.0 | 10.0 | 0.00 | 0.01 | 0.01 | 36 | 1005.6 |
| 20260503234409 | 85 | 324 | 5.0 | 10.0 | 0.00 | 0.01 | 0.01 | 37 | 1005.7 |
| 20260503233409 | 84 | 40 | 6.0 | 14.0 | 0.00 | 0.01 | 0.01 | 37 | 1005.7 |
| 20260503232410 | 84 | 43 | 6.0 | 12.0 | 0.00 | 0.01 | 0.01 | 38 | 1005.7 |
| 20260503231410 | 84 | 297 | 6.0 | 14.0 | 0.00 | 0.01 | 0.01 | 37 | 1005.9 |
| 20260503230411 | 83 | 13 | 6.0 | 13.0 | 0.00 | 0.01 | 0.01 | 36 | 1006.1 |
| 20260503225410 | 83 | 307 | 5.0 | 12.0 | 0.00 | 0.01 | 0.01 | 37 | 1006.2 |
| 20260503224408 | 83 | 318 | 5.0 | 11.0 | 0.00 | 0.01 | 0.01 | 37 | 1006.5 |
| 20260503223409 | 82 | 265 | 6.0 | 11.0 | 0.00 | 0.01 | 0.01 | 43 | 1006.5 |
| 20260503222409 | 82 | 303 | 5.0 | 12.0 | 0.00 | 0.01 | 0.01 | 47 | 1006.6 |
| 20260503221409 | 82 | 299 | 4.0 | 10.0 | 0.00 | 0.01 | 0.01 | 51 | 1006.9 |
| 20260503220410 | 81 | 302 | 4.0 | 10.0 | 0.00 | 0.01 | 0.01 | 53 | 1007.1 |
| 20260503215418 | 81 | 294 | 4.0 | 10.0 | 0.00 | 0.01 | 0.01 | 55 | 1007.4 |
| 20260503214412 | 80 | 306 | 3.0 | 8.0 | 0.00 | 0.01 | 0.01 | 52 | 1007.5 |
| 20260503213848 | 80 | 306 | 3.0 | 11.0 | 0.00 | 0.01 | 0.01 | 54 | 1007.5 |
| 20260503212408 | 80 | 311 | 3.0 | 7.0 | 0.00 | 0.01 | 0.01 | 55 | 1007.5 |
| 20260503211409 | 78 | 306 | 4.0 | 8.0 | 0.00 | 0.01 | 0.01 | 58 | 1007.5 |
| 20260503210409 | 78 | 302 | 5.0 | 11.0 | 0.00 | 0.01 | 0.01 | 56 | 1007.7 |
| 20260503205409 | 78 | 323 | 3.0 | 11.0 | 0.00 | 0.01 | 0.01 | 55 | 1007.8 |
| 20260503204412 | 77 | 284 | 5.0 | 12.0 | 0.00 | 0.01 | 0.01 | 57 | 1007.9 |
| 20260503203411 | 77 | 317 | 4.0 | 10.0 | 0.00 | 0.01 | 0.01 | 59 | 1008.0 |
| 20260503202908 | 77 | 296 | 3.0 | 9.0 | 0.00 | 0.01 | 0.01 | 58 | 1008.2 |
| 20260503201409 | 76 | 320 | 4.0 | 9.0 | 0.00 | 0.01 | 0.01 | 58 | 1008.2 |
| 20260503200408 | 76 | 310 | 4.0 | 8.0 | 0.00 | 0.01 | 0.01 | 60 | 1008.5 |
| 20260503195411 | 75 | 314 | 3.0 | 10.0 | 0.00 | 0.01 | 0.01 | 60 | 1008.5 |
| 20260503194408 | 75 | 290 | 3.0 | 8.0 | 0.00 | 0.01 | 0.01 | 60 | 1008.6 |
| 20260503193408 | 75 | 319 | 3.0 | 7.0 | 0.00 | 0.01 | 0.01 | 61 | 1008.7 |
| 20260503193333 | 74 | 9 | 3.0 | 8.0 | 0.00 | 0.01 | 0.01 | 61 | 1008.9 |
| 20260503191409 | 74 | 335 | 3.0 | 8.0 | 0.00 | 0.01 | 0.01 | 62 | 1008.9 |
| 20260503190408 | 74 | 290 | 1.0 | 4.0 | 0.00 | 0.01 | 0.01 | 61 | 1009.1 |
| 20260503190320 | 73 | 292 | 1.0 | 3.0 | 0.00 | 0.01 | 0.01 | 62 | 1009.4 |
| 20260503184403 | 72 | 290 | 1.0 | 5.0 | 0.00 | 0.01 | 0.01 | 61 | 1009.4 |
| 20260503183404 | 72 | 275 | 1.0 | 3.0 | 0.00 | 0.01 | 0.01 | 63 | 1009.5 |
| 20260503182404 | 70 | 272 | 2.0 | 5.0 | 0.00 | 0.01 | 0.01 | 65 | 1009.6 |
| 20260503181405 | 69 | 294 | 1.0 | 5.0 | 0.00 | 0.01 | 0.01 | 68 | 1009.7 |
| 20260503180840 | 68 | 340 | 2.0 | 4.0 | 0.00 | 0.01 | 0.01 | 68 | 1009.7 |
| 20260503175406 | 68 | 262 | 1.0 | 4.0 | 0.00 | 0.01 | 0.01 | 71 | 1009.8 |
| 20260503174844 | 67 | 328 | 1.0 | 4.0 | 0.00 | 0.01 | 0.01 | 74 | 1009.8 |
| 20260503174352 | 66 | 321 | 2.0 | 5.0 | 0.00 | 0.01 | 0.01 | 75 | 1009.9 |
| 20260503172404 | 65 | 307 | 1.0 | 6.0 | 0.00 | 0.01 | 0.01 | 76 | 1009.9 |
| 20260503171404 | 64 | 293 | 2.0 | 5.0 | 0.00 | 0.01 | 0.01 | 76 | 1009.9 |
| 20260503170916 | 64 | 316 | 1.0 | 6.0 | 0.00 | 0.01 | 0.01 | 77 | 1009.9 |
| 20260503150403 | 52 | 215 | 0.0 | 0.0 | 0.00 | 0.00 | 0.00 | 97 | 1010.4 |
| 20260503131400 | 48 | 194 | 0.0 | 0.0 | 0.00 | 0.01 | 0.00 | 96 | 1010.1 |
| 20260503130400 | 48 | 194 | 0.0 | 0.0 | 0.00 | 0.01 | 0.00 | 96 | 1010.0 |
| 20260503110346 | 51 | 194 | 0.0 | 0.0 | 0.00 | 0.01 | 0.00 | 95 | 1010.5 |
| 20260503090343 | 52 | 31 | 0.0 | 0.0 | 0.00 | 0.01 | 0.00 | 93 | 1010.3 |
| 20260503081333 | 54 | 31 | 0.0 | 0.0 | 0.00 | 0.01 | 0.00 | 92 | 1010.3 |
| 20260503080333 | 55 | 31 | 0.0 | 0.0 | 0.00 | 0.01 | 0.00 | 91 | 1010.3 |